Time;durP1;ratioP1;P1;durP2;ratioP2;P2;SDS_P1;SDS_P2;PMS_P1;PMS_P2;Temp;Humidity;BMP_temperature;BMP_pressure;BME280_temperature;BME280_humidity;BME280_pressure;Samples;Min_cycle;Max_cycle;Signal;HPM_P1;HPM_P2
2023/02/09 00:00:21;;;;;;;3.67;2.83;;;;;;;;;;5106487;28;20188;-48
2023/02/09 00:02:50;;;;;;;3.60;2.77;;;;;;;;;;5107742;28;20222;-48
2023/02/09 00:05:19;;;;;;;3.13;2.80;;;;;;;;;;5088269;28;20223;-48
2023/02/09 00:07:49;;;;;;;4.60;2.87;;;;;;;;;;5105086;28;20227;-48
2023/02/09 00:10:21;;;;;;;3.60;2.60;;;;;;;;;;5103671;28;20218;-48
2023/02/09 00:15:41;;;;;;;3.10;2.47;;;;;;;;;;5108449;28;20199;-48
2023/02/09 00:18:10;;;;;;;3.37;2.33;;;;;;;;;;5114788;27;20211;-48
2023/02/09 00:20:42;;;;;;;3.33;2.73;;;;;;;;;;5110846;28;20203;-48
2023/02/09 00:23:12;;;;;;;5.70;2.70;;;;;;;;;;5105462;28;20291;-48
2023/02/09 00:25:40;;;;;;;2.73;2.40;;;;;;;;;;5116345;27;20283;-48
2023/02/09 00:28:10;;;;;;;2.90;2.40;;;;;;;;;;5109642;28;20208;-48
2023/02/09 00:30:41;;;;;;;3.00;2.50;;;;;;;;;;5110207;28;20200;-48
2023/02/09 00:33:14;;;;;;;3.37;2.67;;;;;;;;;;5115810;27;20555;-48
2023/02/09 00:35:45;;;;;;;3.60;2.63;;;;;;;;;;5110381;28;20208;-48
2023/02/09 00:38:19;;;;;;;2.60;2.40;;;;;;;;;;5092851;28;20196;-48
2023/02/09 00:40:55;;;;;;;4.57;2.50;;;;;;;;;;5110261;28;20278;-48
2023/02/09 00:43:23;;;;;;;2.57;2.30;;;;;;;;;;5118691;27;20328;-48
2023/02/09 00:45:54;;;;;;;3.07;2.43;;;;;;;;;;5111910;27;20193;-48
2023/02/09 00:48:26;;;;;;;2.60;2.17;;;;;;;;;;5114868;27;20212;-47
2023/02/09 00:50:58;;;;;;;2.93;2.50;;;;;;;;;;5108192;27;20220;-48
2023/02/09 00:53:31;;;;;;;2.57;2.03;;;;;;;;;;5115666;27;20220;-48
2023/02/09 00:56:01;;;;;;;3.87;2.43;;;;;;;;;;5110046;27;20665;-48
2023/02/09 00:58:34;;;;;;;4.30;2.20;;;;;;;;;;5107334;28;20762;-48
2023/02/09 01:01:06;;;;;;;3.27;2.20;;;;;;;;;;5103606;27;20196;-48
2023/02/09 01:03:37;;;;;;;3.23;2.67;;;;;;;;;;5114250;27;20261;-48
2023/02/09 01:06:07;;;;;;;2.63;2.00;;;;;;;;;;5122199;27;20211;-48
2023/02/09 01:08:39;;;;;;;2.53;2.33;;;;;;;;;;5109216;28;20216;-48
2023/02/09 01:11:11;;;;;;;5.27;2.60;;;;;;;;;;5100071;28;20200;-48
2023/02/09 01:13:40;;;;;;;2.40;1.80;;;;;;;;;;5108604;27;20539;-48
2023/02/09 01:16:11;;;;;;;2.87;2.20;;;;;;;;;;5094248;27;20250;-48
2023/02/09 01:18:43;;;;;;;2.40;2.10;;;;;;;;;;5115282;27;20529;-48
2023/02/09 01:21:17;;;;;;;2.97;2.50;;;;;;;;;;5087850;27;20586;-48
2023/02/09 01:23:52;;;;;;;2.77;2.57;;;;;;;;;;5098241;28;20200;-48
2023/02/09 01:26:26;;;;;;;3.10;2.33;;;;;;;;;;5109447;28;20187;-48
2023/02/09 01:29:04;;;;;;;3.13;2.23;;;;;;;;;;5101067;28;20204;-48
2023/02/09 01:31:33;;;;;;;2.97;2.10;;;;;;;;;;5120268;27;20245;-48
2023/02/09 01:34:06;;;;;;;3.13;2.60;;;;;;;;;;5106174;28;20863;-48
2023/02/09 01:36:38;;;;;;;3.53;2.63;;;;;;;;;;5109951;27;20189;-48
2023/02/09 01:39:11;;;;;;;2.73;2.20;;;;;;;;;;5106236;28;20680;-48
2023/02/09 01:41:43;;;;;;;2.57;1.87;;;;;;;;;;5116310;27;20195;-48
2023/02/09 01:44:23;;;;;;;3.00;2.50;;;;;;;;;;5109204;28;20228;-48
2023/02/09 01:46:54;;;;;;;3.10;2.70;;;;;;;;;;5115688;27;20284;-48
2023/02/09 01:49:31;;;;;;;3.73;2.60;;;;;;;;;;5109607;28;20249;-48
2023/02/09 01:52:28;;;;;;;5.10;2.67;;;;;;;;;;5116825;27;20196;-48
2023/02/09 01:55:02;;;;;;;3.63;2.50;;;;;;;;;;5095300;28;20212;-48
2023/02/09 01:57:35;;;;;;;2.50;2.20;;;;;;;;;;5088053;28;20196;-48
2023/02/09 02:00:13;;;;;;;2.23;2.03;;;;;;;;;;5097252;27;20203;-48
2023/02/09 02:02:44;;;;;;;3.90;2.53;;;;;;;;;;5113171;27;20195;-48
2023/02/09 02:05:13;;;;;;;2.83;2.60;;;;;;;;;;5105253;28;20847;-48
2023/02/09 02:07:48;;;;;;;2.57;2.10;;;;;;;;;;5091000;28;20733;-48
2023/02/09 02:10:17;;;;;;;3.33;2.50;;;;;;;;;;5091911;28;20281;-48
2023/02/09 02:12:49;;;;;;;2.60;2.37;;;;;;;;;;5093960;28;20203;-48
2023/02/09 02:15:22;;;;;;;2.27;2.07;;;;;;;;;;5095537;28;20189;-48
2023/02/09 02:18:13;;;;;;;3.57;2.67;;;;;;;;;;5087467;28;20203;-48
2023/02/09 02:20:57;;;;;;;4.53;2.20;;;;;;;;;;5108412;28;20188;-48
2023/02/09 02:23:48;;;;;;;4.23;2.33;;;;;;;;;;5106822;27;20241;-48
2023/02/09 02:26:34;;;;;;;3.10;2.43;;;;;;;;;;5110344;27;20542;-48
2023/02/09 02:29:11;;;;;;;3.00;2.30;;;;;;;;;;5107589;27;20211;-48
2023/02/09 02:31:57;;;;;;;2.30;2.10;;;;;;;;;;5114633;27;20747;-48
2023/02/09 02:34:50;;;;;;;2.67;2.13;;;;;;;;;;5088028;28;20212;-48
2023/02/09 02:37:36;;;;;;;3.03;2.27;;;;;;;;;;5102068;28;20594;-48
2023/02/09 02:40:27;;;;;;;2.90;2.37;;;;;;;;;;5112492;27;20223;-48
2023/02/09 02:43:15;;;;;;;2.77;2.00;;;;;;;;;;5095036;28;20268;-47
2023/02/09 02:45:49;;;;;;;2.13;1.93;;;;;;;;;;5089656;28;20313;-48
2023/02/09 02:48:24;;;;;;;3.50;2.57;;;;;;;;;;5087859;28;20646;-48
2023/02/09 02:51:05;;;;;;;2.73;2.40;;;;;;;;;;5087318;28;20693;-48
2023/02/09 02:53:37;;;;;;;3.77;2.67;;;;;;;;;;5087868;28;20555;-48
2023/02/09 02:56:11;;;;;;;3.50;2.80;;;;;;;;;;5088057;28;20185;-47
2023/02/09 02:58:41;;;;;;;3.50;2.23;;;;;;;;;;5085056;28;20762;-48
2023/02/09 03:01:15;;;;;;;4.40;2.17;;;;;;;;;;5085581;28;20200;-48
2023/02/09 03:03:49;;;;;;;2.97;2.60;;;;;;;;;;5087121;28;20197;-48
2023/02/09 03:06:21;;;;;;;3.83;2.83;;;;;;;;;;5087894;28;20296;-48
2023/02/09 03:08:53;;;;;;;3.10;2.80;;;;;;;;;;5081422;28;20634;-48
2023/02/09 03:11:25;;;;;;;3.77;2.50;;;;;;;;;;5092549;28;20188;-47
2023/02/09 03:14:05;;;;;;;3.17;2.50;;;;;;;;;;5087804;28;20190;-48
2023/02/09 03:16:58;;;;;;;3.43;2.47;;;;;;;;;;5087184;28;20365;-48
2023/02/09 03:19:44;;;;;;;2.87;2.50;;;;;;;;;;5086625;28;20247;-48
2023/02/09 03:22:27;;;;;;;3.50;2.83;;;;;;;;;;5075703;28;20227;-48
2023/02/09 03:25:13;;;;;;;3.27;2.73;;;;;;;;;;5082529;28;20204;-48
2023/02/09 03:27:50;;;;;;;2.57;2.20;;;;;;;;;;5090307;28;20204;-48
2023/02/09 03:30:19;;;;;;;2.57;2.37;;;;;;;;;;5092416;28;20239;-48
2023/02/09 03:32:55;;;;;;;2.97;2.43;;;;;;;;;;5088373;28;20193;-48
2023/02/09 03:35:27;;;;;;;3.47;2.67;;;;;;;;;;5094545;28;20196;-48
2023/02/09 03:38:01;;;;;;;2.83;2.37;;;;;;;;;;5091731;28;20256;-48
2023/02/09 03:40:33;;;;;;;2.97;2.40;;;;;;;;;;5093434;28;20292;-48
2023/02/09 03:43:10;;;;;;;2.60;2.30;;;;;;;;;;5084691;28;20207;-48
2023/02/09 03:45:40;;;;;;;2.60;2.40;;;;;;;;;;5082175;28;20232;-48
2023/02/09 03:48:12;;;;;;;2.13;1.93;;;;;;;;;;5070066;28;20228;-48
2023/02/09 03:50:42;;;;;;;2.50;1.80;;;;;;;;;;5090603;28;20200;-48
2023/02/09 03:53:12;;;;;;;3.93;2.27;;;;;;;;;;5088412;28;20616;-48
2023/02/09 03:55:46;;;;;;;3.37;2.40;;;;;;;;;;5073262;28;20565;-48
2023/02/09 03:58:18;;;;;;;2.73;2.20;;;;;;;;;;5089180;28;20285;-48
2023/02/09 04:00:49;;;;;;;2.50;2.10;;;;;;;;;;5090808;28;20204;-48
2023/02/09 04:03:21;;;;;;;3.20;2.40;;;;;;;;;;5090559;28;20205;-48
2023/02/09 04:05:53;;;;;;;2.80;2.07;;;;;;;;;;5091582;28;20577;-48
2023/02/09 04:08:24;;;;;;;2.47;2.10;;;;;;;;;;5090760;28;20515;-48
2023/02/09 04:10:56;;;;;;;2.77;2.33;;;;;;;;;;5092265;28;20207;-48
2023/02/09 04:13:30;;;;;;;2.93;1.97;;;;;;;;;;5079070;28;20197;-48
2023/02/09 04:15:58;;;;;;;2.87;2.30;;;;;;;;;;5098829;28;20632;-48
2023/02/09 04:18:27;;;;;;;2.73;2.40;;;;;;;;;;5090393;28;20185;-48
2023/02/09 04:20:57;;;;;;;2.93;2.13;;;;;;;;;;5090292;28;20197;-48
2023/02/09 04:23:30;;;;;;;3.37;2.20;;;;;;;;;;5091290;28;20564;-48
2023/02/09 04:26:00;;;;;;;3.77;2.40;;;;;;;;;;5090743;28;20197;-49
2023/02/09 04:28:28;;;;;;;2.30;2.10;;;;;;;;;;5094217;28;20219;-48
2023/02/09 04:30:59;;;;;;;2.40;2.00;;;;;;;;;;5087996;28;20203;-48
2023/02/09 04:33:33;;;;;;;2.23;2.03;;;;;;;;;;5087716;28;20248;-48
2023/02/09 04:36:01;;;;;;;2.20;2.00;;;;;;;;;;5095758;28;20224;-48
2023/02/09 04:38:35;;;;;;;2.87;2.53;;;;;;;;;;5073504;28;20258;-48
2023/02/09 04:41:06;;;;;;;2.30;2.10;;;;;;;;;;5098082;28;20205;-48
2023/02/09 04:43:48;;;;;;;2.83;2.17;;;;;;;;;;5081715;28;20708;-48
2023/02/09 04:46:19;;;;;;;2.53;2.20;;;;;;;;;;5107410;28;20200;-48
2023/02/09 04:48:51;;;;;;;2.30;2.10;;;;;;;;;;5093020;28;20213;-48
2023/02/09 04:51:18;;;;;;;2.50;2.20;;;;;;;;;;5110194;27;20201;-48
2023/02/09 04:53:51;;;;;;;2.37;2.00;;;;;;;;;;5111127;28;20196;-48
2023/02/09 04:56:22;;;;;;;3.03;2.30;;;;;;;;;;5104551;27;20192;-48
2023/02/09 05:01:42;;;;;;;3.00;2.10;;;;;;;;;;5116201;27;20264;-48
2023/02/09 05:04:13;;;;;;;4.03;2.60;;;;;;;;;;5112858;27;20592;-48
2023/02/09 05:06:43;;;;;;;2.70;2.27;;;;;;;;;;5109353;28;20192;-48
2023/02/09 05:09:13;;;;;;;2.60;2.40;;;;;;;;;;5103861;27;20231;-49
2023/02/09 05:11:42;;;;;;;3.03;2.20;;;;;;;;;;5113644;27;20188;-48
2023/02/09 05:14:11;;;;;;;2.33;2.13;;;;;;;;;;5110781;28;20735;-48
2023/02/09 05:16:42;;;;;;;2.43;2.23;;;;;;;;;;5110106;28;20358;-48
2023/02/09 05:19:15;;;;;;;2.70;2.30;;;;;;;;;;5107795;27;20203;-48
2023/02/09 05:21:46;;;;;;;2.77;2.47;;;;;;;;;;5096277;28;20533;-49
2023/02/09 05:24:18;;;;;;;5.13;1.80;;;;;;;;;;5112809;27;20578;-48
2023/02/09 05:26:47;;;;;;;2.77;2.47;;;;;;;;;;5098213;28;20528;-48
2023/02/09 05:29:21;;;;;;;2.43;2.23;;;;;;;;;;5107934;27;20216;-48
2023/02/09 05:31:51;;;;;;;2.43;2.03;;;;;;;;;;5091869;28;20202;-49
2023/02/09 05:34:23;;;;;;;3.00;2.60;;;;;;;;;;5108139;28;20204;-48
2023/02/09 05:36:54;;;;;;;2.87;2.13;;;;;;;;;;5111043;27;20203;-48
2023/02/09 05:39:24;;;;;;;2.53;2.33;;;;;;;;;;5107929;28;20223;-48
2023/02/09 05:44:47;;;;;;;2.47;2.23;;;;;;;;;;5098227;27;20246;-48
2023/02/09 05:47:19;;;;;;;2.80;2.20;;;;;;;;;;5086343;28;20211;-48
2023/02/09 05:50:03;;;;;;;2.90;2.40;;;;;;;;;;5093755;28;20296;-49
2023/02/09 05:52:35;;;;;;;3.07;2.77;;;;;;;;;;5116639;27;20217;-48
2023/02/09 05:55:06;;;;;;;2.53;2.20;;;;;;;;;;5111355;27;20245;-48
2023/02/09 05:57:37;;;;;;;2.80;2.50;;;;;;;;;;5111774;27;20224;-48
2023/02/09 06:00:06;;;;;;;2.63;2.40;;;;;;;;;;5103008;27;20192;-48
2023/02/09 06:02:50;;;;;;;3.47;2.57;;;;;;;;;;5115173;27;20274;-48
2023/02/09 06:05:21;;;;;;;3.33;2.60;;;;;;;;;;5104596;28;20188;-48
2023/02/09 06:07:52;;;;;;;2.97;2.60;;;;;;;;;;5088996;28;20321;-48
2023/02/09 06:10:26;;;;;;;3.50;2.60;;;;;;;;;;5108483;27;20216;-48
2023/02/09 06:12:54;;;;;;;3.57;3.00;;;;;;;;;;5091654;28;20200;-49
2023/02/09 06:15:26;;;;;;;5.37;2.87;;;;;;;;;;5108349;28;20184;-48
2023/02/09 06:17:56;;;;;;;3.93;3.00;;;;;;;;;;5108847;27;20195;-48
2023/02/09 06:20:29;;;;;;;3.30;2.63;;;;;;;;;;5092577;27;20180;-48
2023/02/09 06:23:00;;;;;;;3.83;2.80;;;;;;;;;;5103618;27;20204;-48
2023/02/09 06:25:42;;;;;;;3.73;2.70;;;;;;;;;;5108924;28;20270;-48
2023/02/09 06:28:14;;;;;;;3.77;3.20;;;;;;;;;;5102965;28;20648;-48
2023/02/09 06:30:55;;;;;;;5.20;2.90;;;;;;;;;;5101568;28;20196;-48
2023/02/09 06:33:25;;;;;;;4.60;3.17;;;;;;;;;;5105842;28;20249;-49
2023/02/09 06:35:55;;;;;;;4.40;3.43;;;;;;;;;;5108135;28;20625;-48
2023/02/09 06:38:27;;;;;;;3.73;3.20;;;;;;;;;;5113503;27;20196;-48
2023/02/09 06:40:58;;;;;;;4.03;3.10;;;;;;;;;;5109625;27;20180;-48
2023/02/09 06:43:28;;;;;;;3.80;3.20;;;;;;;;;;5101129;28;20200;-49
2023/02/09 06:46:08;;;;;;;3.10;2.80;;;;;;;;;;5105873;28;20208;-48
2023/02/09 06:48:40;;;;;;;4.53;3.53;;;;;;;;;;5105150;27;20229;-48
2023/02/09 06:51:16;;;;;;;4.50;3.27;;;;;;;;;;5107150;27;20274;-44
2023/02/09 06:53:48;;;;;;;4.73;3.63;;;;;;;;;;5114362;27;20196;-44
2023/02/09 06:56:19;;;;;;;6.17;3.23;;;;;;;;;;5106025;28;20193;-44
2023/02/09 06:58:48;;;;;;;5.33;3.40;;;;;;;;;;5094438;28;20213;-44
2023/02/09 07:01:18;;;;;;;4.97;3.30;;;;;;;;;;5099035;27;20207;-44
2023/02/09 07:03:51;;;;;;;5.87;3.93;;;;;;;;;;5106016;28;20600;-44
2023/02/09 07:06:35;;;;;;;4.50;3.50;;;;;;;;;;5108172;28;20236;-44
2023/02/09 07:09:07;;;;;;;5.40;3.80;;;;;;;;;;5103025;28;20426;-44
2023/02/09 07:11:39;;;;;;;4.40;3.83;;;;;;;;;;5110632;28;20192;-45
2023/02/09 07:14:07;;;;;;;6.50;4.23;;;;;;;;;;5108613;28;20216;-45
2023/02/09 07:16:40;;;;;;;6.40;4.13;;;;;;;;;;5095807;28;20193;-48
2023/02/09 07:19:12;;;;;;;21.70;7.70;;;;;;;;;;5102426;28;20233;-50
2023/02/09 07:21:42;;;;;;;22.90;8.17;;;;;;;;;;5108776;28;20219;-50
2023/02/09 07:24:15;;;;;;;25.80;8.93;;;;;;;;;;5094933;28;20284;-47
2023/02/09 07:26:47;;;;;;;26.20;9.27;;;;;;;;;;5112614;28;20231;-45
2023/02/09 07:29:19;;;;;;;25.07;8.80;;;;;;;;;;5105605;28;20216;-45
2023/02/09 07:31:50;;;;;;;24.53;9.73;;;;;;;;;;5115798;27;20184;-48
2023/02/09 07:34:21;;;;;;;19.13;8.43;;;;;;;;;;5112044;27;20200;-49
2023/02/09 07:36:50;;;;;;;23.13;9.20;;;;;;;;;;5112377;27;20216;-49
2023/02/09 07:39:22;;;;;;;22.87;8.97;;;;;;;;;;5093832;28;20735;-48
2023/02/09 07:41:53;;;;;;;16.00;8.17;;;;;;;;;;5102901;28;20200;-49
2023/02/09 07:44:24;;;;;;;20.43;8.33;;;;;;;;;;5094519;28;20236;-49
2023/02/09 07:46:55;;;;;;;14.53;7.20;;;;;;;;;;5097597;28;20220;-44
2023/02/09 07:49:27;;;;;;;16.73;7.73;;;;;;;;;;5112023;28;20249;-44
2023/02/09 07:51:59;;;;;;;17.90;8.10;;;;;;;;;;5106777;28;20187;-49
2023/02/09 07:54:30;;;;;;;15.20;7.03;;;;;;;;;;5116320;27;20192;-49
2023/02/09 07:57:03;;;;;;;13.87;6.90;;;;;;;;;;5105170;28;20692;-48
2023/02/09 07:59:32;;;;;;;14.73;7.03;;;;;;;;;;5105353;28;20638;-48
2023/02/09 08:02:05;;;;;;;14.83;6.80;;;;;;;;;;5109665;27;20200;-49
2023/02/09 08:04:35;;;;;;;14.40;6.87;;;;;;;;;;5111986;27;20517;-49
2023/02/09 08:07:07;;;;;;;19.17;6.70;;;;;;;;;;5103619;27;20431;-45
2023/02/09 08:09:37;;;;;;;13.47;6.43;;;;;;;;;;5119133;27;20266;-45
2023/02/09 08:12:06;;;;;;;10.50;6.47;;;;;;;;;;5107225;27;20220;-45
2023/02/09 08:14:41;;;;;;;13.20;6.37;;;;;;;;;;5107036;28;20500;-45
2023/02/09 08:17:26;;;;;;;10.67;6.57;;;;;;;;;;5102274;27;20220;-48
2023/02/09 08:20:04;;;;;;;10.37;5.97;;;;;;;;;;5110851;28;20343;-48
2023/02/09 08:22:37;;;;;;;10.27;6.53;;;;;;;;;;5102971;27;20667;-44
2023/02/09 08:25:11;;;;;;;11.23;7.00;;;;;;;;;;5107934;27;20203;-44
2023/02/09 08:27:48;;;;;;;9.23;6.30;;;;;;;;;;5111447;27;20196;-44
2023/02/09 08:30:18;;;;;;;10.03;5.87;;;;;;;;;;5109958;28;20256;-44
2023/02/09 08:32:47;;;;;;;10.63;5.43;;;;;;;;;;5093036;28;20196;-44
2023/02/09 08:35:19;;;;;;;8.77;6.03;;;;;;;;;;5088315;28;26699;-48
2023/02/09 08:37:48;;;;;;;9.07;5.83;;;;;;;;;;5115323;27;20200;-48
2023/02/09 08:40:23;;;;;;;10.37;5.80;;;;;;;;;;5111601;27;20328;-45
2023/02/09 08:42:51;;;;;;;8.00;5.87;;;;;;;;;;5110460;27;20672;-45
2023/02/09 08:45:20;;;;;;;9.10;6.07;;;;;;;;;;5107985;28;20240;-49
2023/02/09 08:47:52;;;;;;;9.37;5.67;;;;;;;;;;5101638;27;20204;-49
2023/02/09 08:50:34;;;;;;;8.57;5.37;;;;;;;;;;5110555;28;20240;-44
2023/02/09 08:53:11;;;;;;;8.03;4.83;;;;;;;;;;5107597;27;20204;-45
2023/02/09 08:55:42;;;;;;;10.37;4.87;;;;;;;;;;5104240;28;20199;-49
2023/02/09 08:58:13;;;;;;;7.07;4.67;;;;;;;;;;5084679;28;20205;-49
2023/02/09 09:00:40;;;;;;;7.43;4.60;;;;;;;;;;5107658;28;20211;-50
2023/02/09 09:03:12;;;;;;;6.33;4.80;;;;;;;;;;5107222;27;20208;-51
2023/02/09 09:05:42;;;;;;;8.47;4.57;;;;;;;;;;5098526;28;20261;-51
2023/02/09 09:08:16;;;;;;;9.87;5.20;;;;;;;;;;5111087;27;20304;-50
2023/02/09 09:10:45;;;;;;;7.83;4.53;;;;;;;;;;5110093;28;20204;-49
2023/02/09 09:13:17;;;;;;;6.00;4.43;;;;;;;;;;5106018;27;20204;-49
2023/02/09 09:15:48;;;;;;;8.80;4.90;;;;;;;;;;5109979;28;20192;-49
2023/02/09 09:18:18;;;;;;;4.93;4.33;;;;;;;;;;5109204;28;20197;-50
2023/02/09 09:20:50;;;;;;;5.67;4.17;;;;;;;;;;5112494;27;20546;-46
2023/02/09 09:23:20;;;;;;;6.80;4.30;;;;;;;;;;5104886;27;20216;-46
2023/02/09 09:25:50;;;;;;;5.17;4.10;;;;;;;;;;5088874;28;20817;-50
2023/02/09 09:28:22;;;;;;;5.30;3.90;;;;;;;;;;5103756;28;20575;-50
2023/02/09 09:30:52;;;;;;;5.70;4.27;;;;;;;;;;5109477;28;20720;-50
2023/02/09 09:33:23;;;;;;;4.23;3.70;;;;;;;;;;5114950;27;20268;-50
2023/02/09 09:35:52;;;;;;;6.63;3.90;;;;;;;;;;5114478;27;20261;-50
2023/02/09 09:38:24;;;;;;;4.90;4.07;;;;;;;;;;5109938;28;20192;-50
2023/02/09 09:40:55;;;;;;;6.27;4.27;;;;;;;;;;5109255;28;20215;-51
2023/02/09 09:43:26;;;;;;;6.63;4.10;;;;;;;;;;5110828;27;20190;-49
2023/02/09 09:45:56;;;;;;;5.90;3.63;;;;;;;;;;5114503;27;20576;-49
2023/02/09 09:48:33;;;;;;;7.03;4.00;;;;;;;;;;5101930;28;20212;-48
2023/02/09 09:51:12;;;;;;;5.10;3.90;;;;;;;;;;5083979;28;20196;-51
2023/02/09 09:53:51;;;;;;;6.20;4.50;;;;;;;;;;5107912;28;20202;-50
2023/02/09 09:56:23;;;;;;;3.90;3.50;;;;;;;;;;5091251;28;20242;-50
2023/02/09 09:58:54;;;;;;;4.80;4.30;;;;;;;;;;5117996;27;20523;-49
2023/02/09 10:01:38;;;;;;;6.27;4.30;;;;;;;;;;5108293;28;20200;-49
2023/02/09 10:04:12;;;;;;;5.00;4.03;;;;;;;;;;5105115;27;20256;-49
2023/02/09 10:06:43;;;;;;;5.73;4.53;;;;;;;;;;5112476;27;20521;-49
2023/02/09 10:09:32;;;;;;;5.00;4.40;;;;;;;;;;5107559;27;20216;-50
2023/02/09 10:12:16;;;;;;;5.23;4.73;;;;;;;;;;5095433;27;20212;-49
2023/02/09 10:14:49;;;;;;;4.93;3.97;;;;;;;;;;5110769;27;20264;-50
2023/02/09 10:17:19;;;;;;;7.00;4.13;;;;;;;;;;5105929;28;20257;-49
2023/02/09 10:19:59;;;;;;;4.90;4.23;;;;;;;;;;5109534;27;20196;-49
2023/02/09 10:22:45;;;;;;;4.87;4.37;;;;;;;;;;5095346;27;20192;-49
2023/02/09 10:25:35;;;;;;;5.23;4.43;;;;;;;;;;5102642;27;20203;-46
2023/02/09 10:28:19;;;;;;;4.50;4.10;;;;;;;;;;5093401;28;20232;-45
2023/02/09 10:30:54;;;;;;;5.23;4.23;;;;;;;;;;5109418;28;20220;-45
2023/02/09 10:33:46;;;;;;;6.00;4.83;;;;;;;;;;5096277;27;20527;-45
2023/02/09 10:36:34;;;;;;;5.50;4.77;;;;;;;;;;5107066;27;20796;-48
2023/02/09 10:39:11;;;;;;;4.97;4.33;;;;;;;;;;5105992;28;20666;-49
2023/02/09 10:41:47;;;;;;;7.03;4.03;;;;;;;;;;5108144;28;20226;-45
2023/02/09 10:44:21;;;;;;;6.00;4.37;;;;;;;;;;5088882;28;20245;-44
2023/02/09 10:47:10;;;;;;;4.87;3.93;;;;;;;;;;5085762;28;20552;-44
2023/02/09 10:49:41;;;;;;;5.00;4.10;;;;;;;;;;5090105;28;20220;-44
2023/02/09 10:52:16;;;;;;;5.20;4.17;;;;;;;;;;5085647;28;20213;-47
2023/02/09 10:54:55;;;;;;;4.93;4.37;;;;;;;;;;5090579;28;20234;-48
2023/02/09 10:57:37;;;;;;;4.63;4.10;;;;;;;;;;5086610;28;20492;-48
2023/02/09 11:00:21;;;;;;;4.30;3.57;;;;;;;;;;5071224;28;20600;-45
2023/02/09 11:03:00;;;;;;;5.53;4.40;;;;;;;;;;5089895;28;20678;-45
2023/02/09 11:05:51;;;;;;;6.37;4.73;;;;;;;;;;5092429;28;20329;-45
2023/02/09 11:08:23;;;;;;;6.50;4.47;;;;;;;;;;5080797;28;20605;-46
2023/02/09 11:11:10;;;;;;;4.87;4.23;;;;;;;;;;5091624;28;20294;-45
2023/02/09 11:13:41;;;;;;;5.23;4.30;;;;;;;;;;5086540;28;20223;-45
2023/02/09 11:16:31;;;;;;;5.53;4.33;;;;;;;;;;5087190;28;20569;-45
2023/02/09 11:19:08;;;;;;;4.83;4.37;;;;;;;;;;5091412;28;20208;-45
2023/02/09 11:21:56;;;;;;;4.27;3.87;;;;;;;;;;5087228;28;20220;-49
2023/02/09 11:24:45;;;;;;;6.50;4.77;;;;;;;;;;5083154;28;20220;-49
2023/02/09 11:27:39;;;;;;;5.20;4.53;;;;;;;;;;5086879;28;20573;-49
2023/02/09 11:30:28;;;;;;;6.30;4.53;;;;;;;;;;5058135;28;20332;-47
2023/02/09 11:33:08;;;;;;;6.33;4.73;;;;;;;;;;5083548;28;20251;-48
2023/02/09 11:35:47;;;;;;;5.47;4.13;;;;;;;;;;5096958;28;20536;-48
2023/02/09 11:38:21;;;;;;;4.80;4.30;;;;;;;;;;5087573;28;20539;-48
2023/02/09 11:40:55;;;;;;;4.70;3.90;;;;;;;;;;5086152;28;20262;-50
2023/02/09 11:43:39;;;;;;;4.80;4.30;;;;;;;;;;5087435;28;20581;-50
2023/02/09 11:46:15;;;;;;;5.47;3.83;;;;;;;;;;5073424;28;20192;-50
2023/02/09 11:49:17;;;;;;;5.13;4.30;;;;;;;;;;5085092;28;20600;-51
2023/02/09 11:51:44;;;;;;;4.83;3.60;;;;;;;;;;5098991;28;20189;-51
2023/02/09 11:54:28;;;;;;;5.70;3.97;;;;;;;;;;5069487;28;20681;-50
2023/02/09 11:57:03;;;;;;;4.70;4.00;;;;;;;;;;5090163;28;20559;-46
2023/02/09 11:59:46;;;;;;;3.90;3.50;;;;;;;;;;5085115;28;20562;-47
2023/02/09 12:02:34;;;;;;;4.50;3.77;;;;;;;;;;5090634;28;20205;-47
2023/02/09 12:05:05;;;;;;;5.40;4.27;;;;;;;;;;5088007;28;20573;-47
2023/02/09 12:07:58;;;;;;;5.17;3.73;;;;;;;;;;5071019;28;20231;-46
2023/02/09 12:10:48;;;;;;;4.17;3.67;;;;;;;;;;5084336;28;20638;-47
2023/02/09 12:13:17;;;;;;;5.30;4.10;;;;;;;;;;5084985;28;20194;-46
2023/02/09 12:15:51;;;;;;;4.47;3.60;;;;;;;;;;5092630;28;20208;-47
2023/02/09 12:18:25;;;;;;;3.53;3.23;;;;;;;;;;5081290;28;20633;-47
2023/02/09 12:20:58;;;;;;;4.77;3.90;;;;;;;;;;5077998;28;20269;-50
2023/02/09 12:23:36;;;;;;;6.47;4.13;;;;;;;;;;5074562;28;20201;-50
2023/02/09 12:26:27;;;;;;;4.77;3.87;;;;;;;;;;5091855;28;20215;-50
2023/02/09 12:29:19;;;;;;;4.50;3.63;;;;;;;;;;5087530;28;20215;-50
2023/02/09 12:32:07;;;;;;;4.67;3.83;;;;;;;;;;5090954;28;20193;-50
2023/02/09 12:34:42;;;;;;;5.40;3.83;;;;;;;;;;5094795;28;20645;-50
2023/02/09 12:37:28;;;;;;;7.80;4.17;;;;;;;;;;5068272;28;20209;-46
2023/02/09 12:40:09;;;;;;;4.20;3.53;;;;;;;;;;5099883;28;20188;-46
2023/02/09 12:42:45;;;;;;;5.17;4.03;;;;;;;;;;5087788;28;20223;-46
2023/02/09 12:45:37;;;;;;;4.67;3.60;;;;;;;;;;5094875;28;20228;-50
2023/02/09 12:48:09;;;;;;;4.63;3.60;;;;;;;;;;5100066;27;20215;-50
2023/02/09 12:50:54;;;;;;;4.93;3.73;;;;;;;;;;5117149;27;20213;-50
2023/02/09 12:53:23;;;;;;;4.57;3.70;;;;;;;;;;5108233;28;20188;-50
2023/02/09 12:56:03;;;;;;;5.50;3.93;;;;;;;;;;5107192;27;20497;-50
2023/02/09 12:58:51;;;;;;;4.87;3.83;;;;;;;;;;5109713;28;20192;-50
2023/02/09 13:01:21;;;;;;;4.37;3.63;;;;;;;;;;5109974;27;20220;-50
2023/02/09 13:03:58;;;;;;;5.17;3.93;;;;;;;;;;5127858;27;20804;-51
2023/02/09 13:06:44;;;;;;;5.10;4.37;;;;;;;;;;5106258;28;20952;-50
2023/02/09 13:09:18;;;;;;;4.73;3.93;;;;;;;;;;5109356;28;20192;-50
2023/02/09 13:11:49;;;;;;;4.87;4.17;;;;;;;;;;5110298;27;20672;-49
2023/02/09 13:14:21;;;;;;;4.80;4.30;;;;;;;;;;5095178;27;20208;-48
2023/02/09 13:16:58;;;;;;;5.20;3.90;;;;;;;;;;5095622;28;20200;-46
2023/02/09 13:19:42;;;;;;;3.80;3.40;;;;;;;;;;5118386;27;20191;-45
2023/02/09 13:22:22;;;;;;;5.07;3.63;;;;;;;;;;5109809;28;20224;-45
2023/02/09 13:25:13;;;;;;;5.53;4.13;;;;;;;;;;5106445;28;20207;-46
2023/02/09 13:27:47;;;;;;;4.70;4.20;;;;;;;;;;5109579;28;20300;-49
2023/02/09 13:30:32;;;;;;;4.77;4.07;;;;;;;;;;5092952;28;20219;-45
2023/02/09 13:33:05;;;;;;;4.67;4.17;;;;;;;;;;5111822;27;20196;-45
2023/02/09 13:35:35;;;;;;;4.87;3.77;;;;;;;;;;5098401;27;20219;-46
2023/02/09 13:38:16;;;;;;;4.80;4.07;;;;;;;;;;5101628;28;20223;-45
2023/02/09 13:40:47;;;;;;;6.30;4.47;;;;;;;;;;5111878;27;20796;-46
2023/02/09 13:43:39;;;;;;;5.63;4.27;;;;;;;;;;5099168;28;20191;-46
2023/02/09 13:46:23;;;;;;;4.53;3.73;;;;;;;;;;5104817;28;20764;-49
2023/02/09 13:48:56;;;;;;;4.60;4.07;;;;;;;;;;5109070;27;20209;-49
2023/02/09 13:51:28;;;;;;;5.57;4.10;;;;;;;;;;5111363;27;20224;-46
2023/02/09 13:54:02;;;;;;;6.40;3.67;;;;;;;;;;5108699;28;20712;-45
2023/02/09 13:56:38;;;;;;;5.20;4.40;;;;;;;;;;5109305;28;20192;-46
2023/02/09 13:59:12;;;;;;;4.67;4.17;;;;;;;;;;5091949;28;20192;-46
2023/02/09 14:01:46;;;;;;;5.13;4.10;;;;;;;;;;5093103;27;20192;-46
2023/02/09 14:04:22;;;;;;;5.00;4.37;;;;;;;;;;5109403;28;20189;-46
2023/02/09 14:07:00;;;;;;;4.50;3.80;;;;;;;;;;5109054;28;20251;-45
2023/02/09 14:09:45;;;;;;;4.30;3.90;;;;;;;;;;5108446;27;20526;-46
2023/02/09 14:12:49;;;;;;;5.20;4.20;;;;;;;;;;5107050;27;20281;-45
2023/02/09 14:18:26;;;;;;;4.63;4.17;;;;;;;;;;5106825;28;20195;-50
2023/02/09 14:21:01;;;;;;;4.77;4.27;;;;;;;;;;5108392;28;20192;-49
2023/02/09 14:23:33;;;;;;;5.00;4.50;;;;;;;;;;5092261;28;20212;-49
2023/02/09 14:26:21;;;;;;;4.53;4.13;;;;;;;;;;5108525;28;20637;-48
2023/02/09 14:29:08;;;;;;;7.13;4.57;;;;;;;;;;5107401;27;20204;-48
2023/02/09 14:32:02;;;;;;;9.13;4.47;;;;;;;;;;5113173;27;20196;-49
2023/02/09 14:34:39;;;;;;;4.77;4.27;;;;;;;;;;5100331;27;20546;-49
2023/02/09 14:37:13;;;;;;;5.80;4.17;;;;;;;;;;5102413;28;20656;-47
2023/02/09 14:39:52;;;;;;;4.30;3.90;;;;;;;;;;5089895;28;20180;-47
2023/02/09 14:42:26;;;;;;;4.77;4.10;;;;;;;;;;5107853;28;20655;-48
2023/02/09 14:45:00;;;;;;;4.80;4.33;;;;;;;;;;5109277;27;20578;-47
2023/02/09 14:47:43;;;;;;;5.87;4.47;;;;;;;;;;5091564;28;20702;-44
2023/02/09 14:50:22;;;;;;;7.43;4.50;;;;;;;;;;5120225;27;20294;-44
2023/02/09 14:53:06;;;;;;;4.90;4.40;;;;;;;;;;5078893;28;20197;-44
2023/02/09 14:55:39;;;;;;;5.33;4.57;;;;;;;;;;5108066;28;20192;-47
2023/02/09 14:58:20;;;;;;;5.83;4.77;;;;;;;;;;5091071;28;20188;-48
2023/02/09 15:01:00;;;;;;;7.10;4.63;;;;;;;;;;5112389;27;20203;-50
2023/02/09 15:03:30;;;;;;;5.60;4.77;;;;;;;;;;5106028;28;20189;-49
2023/02/09 15:06:02;;;;;;;4.87;4.23;;;;;;;;;;5100405;28;20199;-48
2023/02/09 15:08:35;;;;;;;4.83;3.80;;;;;;;;;;5083048;28;20188;-48
2023/02/09 15:12:03;;;;;;;5.07;4.57;;;;;;;;;;5084784;28;20292;-47
2023/02/09 15:14:01;;;;;;;5.23;4.00;;;;;;;;;;5100761;28;20246;-48
2023/02/09 15:16:33;;;;;;;5.10;4.10;;;;;;;;;;5108430;28;20227;-47
2023/02/09 15:19:13;;;;;;;5.87;5.00;;;;;;;;;;5105771;28;20191;-49
2023/02/09 15:21:45;;;;;;;5.07;4.47;;;;;;;;;;5103762;28;20185;-45
2023/02/09 15:24:36;;;;;;;4.93;4.40;;;;;;;;;;5104947;28;20452;-45
2023/02/09 15:27:06;;;;;;;6.40;4.70;;;;;;;;;;5080078;28;20199;-49
2023/02/09 15:29:37;;;;;;;4.90;4.33;;;;;;;;;;5112924;28;20199;-48
2023/02/09 15:32:12;;;;;;;6.37;4.67;;;;;;;;;;5107077;28;20251;-48
2023/02/09 15:34:45;;;;;;;6.77;5.03;;;;;;;;;;5090295;28;20185;-47
2023/02/09 15:37:42;;;;;;;5.30;4.63;;;;;;;;;;5103232;28;20333;-49
2023/02/09 15:47:47;;;;;;;5.43;4.73;;;;;;;;;;5099753;28;20204;-44